sensor_id;sensor_type;location;lat;lon;timestamp;P1;durP1;ratioP1;P2;durP2;ratioP2
19251;SDS011;9760;50.944;5.304;2023-11-22T00:02:01;35.00;;;16.97;;
19251;SDS011;9760;50.944;5.304;2023-11-22T00:04:27;34.73;;;18.60;;
19251;SDS011;9760;50.944;5.304;2023-11-22T00:06:52;32.47;;;15.73;;
19251;SDS011;9760;50.944;5.304;2023-11-22T00:09:18;35.20;;;17.30;;
19251;SDS011;9760;50.944;5.304;2023-11-22T00:11:47;34.10;;;16.63;;
19251;SDS011;9760;50.944;5.304;2023-11-22T00:14:13;36.60;;;16.77;;
19251;SDS011;9760;50.944;5.304;2023-11-22T00:16:39;34.53;;;16.90;;
19251;SDS011;9760;50.944;5.304;2023-11-22T00:19:05;35.83;;;16.27;;
19251;SDS011;9760;50.944;5.304;2023-11-22T00:21:31;39.37;;;17.33;;
19251;SDS011;9760;50.944;5.304;2023-11-22T00:23:57;38.77;;;17.07;;
19251;SDS011;9760;50.944;5.304;2023-11-22T00:26:23;36.00;;;16.13;;
19251;SDS011;9760;50.944;5.304;2023-11-22T00:28:48;32.23;;;15.80;;
19251;SDS011;9760;50.944;5.304;2023-11-22T00:31:14;40.97;;;17.13;;
19251;SDS011;9760;50.944;5.304;2023-11-22T00:33:40;38.97;;;17.00;;
19251;SDS011;9760;50.944;5.304;2023-11-22T00:36:06;34.13;;;16.90;;
19251;SDS011;9760;50.944;5.304;2023-11-22T00:38:33;41.80;;;17.13;;
19251;SDS011;9760;50.944;5.304;2023-11-22T00:41:01;37.37;;;16.63;;
19251;SDS011;9760;50.944;5.304;2023-11-22T00:43:27;35.27;;;16.30;;
19251;SDS011;9760;50.944;5.304;2023-11-22T00:45:53;32.90;;;16.10;;
19251;SDS011;9760;50.944;5.304;2023-11-22T00:48:18;34.27;;;16.73;;
19251;SDS011;9760;50.944;5.304;2023-11-22T00:50:44;36.50;;;17.07;;
19251;SDS011;9760;50.944;5.304;2023-11-22T00:53:10;36.17;;;16.73;;
19251;SDS011;9760;50.944;5.304;2023-11-22T00:55:35;33.50;;;16.07;;
19251;SDS011;9760;50.944;5.304;2023-11-22T00:58:01;33.90;;;16.23;;
19251;SDS011;9760;50.944;5.304;2023-11-22T01:00:29;35.87;;;16.43;;
19251;SDS011;9760;50.944;5.304;2023-11-22T01:02:55;39.37;;;17.67;;
19251;SDS011;9760;50.944;5.304;2023-11-22T01:05:21;37.73;;;17.47;;
19251;SDS011;9760;50.944;5.304;2023-11-22T01:07:47;36.53;;;16.57;;
19251;SDS011;9760;50.944;5.304;2023-11-22T01:10:13;39.17;;;16.00;;
19251;SDS011;9760;50.944;5.304;2023-11-22T01:12:40;33.97;;;16.00;;
19251;SDS011;9760;50.944;5.304;2023-11-22T01:15:06;36.00;;;17.10;;
19251;SDS011;9760;50.944;5.304;2023-11-22T01:17:33;33.33;;;16.57;;
19251;SDS011;9760;50.944;5.304;2023-11-22T01:19:59;32.47;;;15.60;;
19251;SDS011;9760;50.944;5.304;2023-11-22T01:22:25;37.83;;;16.90;;
19251;SDS011;9760;50.944;5.304;2023-11-22T01:24:51;40.17;;;18.30;;
19251;SDS011;9760;50.944;5.304;2023-11-22T01:27:16;38.17;;;17.43;;
19251;SDS011;9760;50.944;5.304;2023-11-22T01:29:42;40.30;;;17.80;;
19251;SDS011;9760;50.944;5.304;2023-11-22T01:32:08;42.43;;;17.97;;
19251;SDS011;9760;50.944;5.304;2023-11-22T01:34:36;42.90;;;19.00;;
19251;SDS011;9760;50.944;5.304;2023-11-22T01:37:02;40.10;;;17.87;;
19251;SDS011;9760;50.944;5.304;2023-11-22T01:39:28;42.07;;;19.00;;
19251;SDS011;9760;50.944;5.304;2023-11-22T01:41:54;45.70;;;20.03;;
19251;SDS011;9760;50.944;5.304;2023-11-22T01:44:19;40.27;;;19.13;;
19251;SDS011;9760;50.944;5.304;2023-11-22T01:46:45;42.23;;;18.07;;
19251;SDS011;9760;50.944;5.304;2023-11-22T01:49:11;40.83;;;17.43;;
19251;SDS011;9760;50.944;5.304;2023-11-22T01:51:37;52.47;;;20.17;;
19251;SDS011;9760;50.944;5.304;2023-11-22T01:54:04;44.13;;;19.83;;
19251;SDS011;9760;50.944;5.304;2023-11-22T01:56:33;44.73;;;19.20;;
19251;SDS011;9760;50.944;5.304;2023-11-22T01:59:02;50.10;;;20.07;;
19251;SDS011;9760;50.944;5.304;2023-11-22T02:01:29;45.30;;;19.67;;
19251;SDS011;9760;50.944;5.304;2023-11-22T02:03:56;43.97;;;19.70;;
19251;SDS011;9760;50.944;5.304;2023-11-22T02:06:22;42.87;;;20.17;;
19251;SDS011;9760;50.944;5.304;2023-11-22T02:08:49;47.60;;;19.50;;
19251;SDS011;9760;50.944;5.304;2023-11-22T02:11:18;42.70;;;19.37;;
19251;SDS011;9760;50.944;5.304;2023-11-22T02:13:50;43.07;;;19.73;;
19251;SDS011;9760;50.944;5.304;2023-11-22T02:16:19;43.63;;;19.33;;
19251;SDS011;9760;50.944;5.304;2023-11-22T02:18:48;44.80;;;18.90;;
19251;SDS011;9760;50.944;5.304;2023-11-22T02:21:16;43.00;;;19.03;;
19251;SDS011;9760;50.944;5.304;2023-11-22T02:23:42;40.90;;;18.83;;
19251;SDS011;9760;50.944;5.304;2023-11-22T02:26:08;44.20;;;19.73;;
19251;SDS011;9760;50.944;5.304;2023-11-22T02:28:33;41.33;;;19.33;;
19251;SDS011;9760;50.944;5.304;2023-11-22T02:30:59;38.97;;;18.57;;
19251;SDS011;9760;50.944;5.304;2023-11-22T02:33:25;42.90;;;19.47;;
19251;SDS011;9760;50.944;5.304;2023-11-22T02:35:50;42.17;;;19.10;;
19251;SDS011;9760;50.944;5.304;2023-11-22T02:38:16;42.13;;;18.60;;
19251;SDS011;9760;50.944;5.304;2023-11-22T02:40:43;47.33;;;18.93;;
19251;SDS011;9760;50.944;5.304;2023-11-22T02:43:09;46.13;;;19.90;;
19251;SDS011;9760;50.944;5.304;2023-11-22T02:45:36;41.73;;;18.33;;
19251;SDS011;9760;50.944;5.304;2023-11-22T02:48:02;44.83;;;19.53;;
19251;SDS011;9760;50.944;5.304;2023-11-22T02:50:28;41.47;;;18.23;;
19251;SDS011;9760;50.944;5.304;2023-11-22T02:52:56;40.10;;;18.97;;
19251;SDS011;9760;50.944;5.304;2023-11-22T02:55:23;42.80;;;18.20;;
19251;SDS011;9760;50.944;5.304;2023-11-22T02:57:49;42.13;;;20.07;;
19251;SDS011;9760;50.944;5.304;2023-11-22T03:00:16;45.00;;;19.37;;
19251;SDS011;9760;50.944;5.304;2023-11-22T03:02:44;40.80;;;19.20;;
19251;SDS011;9760;50.944;5.304;2023-11-22T03:05:12;41.20;;;18.80;;
19251;SDS011;9760;50.944;5.304;2023-11-22T03:07:39;39.77;;;18.83;;
19251;SDS011;9760;50.944;5.304;2023-11-22T03:10:06;42.10;;;18.47;;
19251;SDS011;9760;50.944;5.304;2023-11-22T03:12:32;43.60;;;19.07;;
19251;SDS011;9760;50.944;5.304;2023-11-22T03:14:58;42.47;;;19.27;;
19251;SDS011;9760;50.944;5.304;2023-11-22T03:17:27;37.43;;;17.67;;
19251;SDS011;9760;50.944;5.304;2023-11-22T03:19:53;37.23;;;16.77;;
19251;SDS011;9760;50.944;5.304;2023-11-22T03:22:28;39.57;;;18.00;;
19251;SDS011;9760;50.944;5.304;2023-11-22T03:24:58;37.77;;;17.83;;
19251;SDS011;9760;50.944;5.304;2023-11-22T03:27:25;36.83;;;17.47;;
19251;SDS011;9760;50.944;5.304;2023-11-22T03:29:51;36.97;;;17.93;;
19251;SDS011;9760;50.944;5.304;2023-11-22T03:32:16;40.00;;;18.13;;
19251;SDS011;9760;50.944;5.304;2023-11-22T03:34:42;39.50;;;17.00;;
19251;SDS011;9760;50.944;5.304;2023-11-22T03:37:08;38.20;;;17.57;;
19251;SDS011;9760;50.944;5.304;2023-11-22T03:39:34;40.70;;;18.00;;
19251;SDS011;9760;50.944;5.304;2023-11-22T03:42:00;37.20;;;17.77;;
19251;SDS011;9760;50.944;5.304;2023-11-22T03:44:25;40.33;;;17.33;;
19251;SDS011;9760;50.944;5.304;2023-11-22T03:46:51;36.43;;;17.10;;
19251;SDS011;9760;50.944;5.304;2023-11-22T03:49:17;44.00;;;18.80;;
19251;SDS011;9760;50.944;5.304;2023-11-22T03:51:43;40.60;;;18.57;;
19251;SDS011;9760;50.944;5.304;2023-11-22T03:54:08;35.77;;;18.80;;
19251;SDS011;9760;50.944;5.304;2023-11-22T03:56:36;39.23;;;17.37;;
19251;SDS011;9760;50.944;5.304;2023-11-22T03:59:01;36.87;;;17.30;;
19251;SDS011;9760;50.944;5.304;2023-11-22T04:01:28;35.97;;;17.30;;
19251;SDS011;9760;50.944;5.304;2023-11-22T04:03:54;41.60;;;17.90;;
19251;SDS011;9760;50.944;5.304;2023-11-22T04:06:19;36.50;;;16.87;;
19251;SDS011;9760;50.944;5.304;2023-11-22T04:08:45;34.37;;;16.50;;
19251;SDS011;9760;50.944;5.304;2023-11-22T04:11:12;32.80;;;16.73;;
19251;SDS011;9760;50.944;5.304;2023-11-22T04:13:38;39.63;;;18.53;;
19251;SDS011;9760;50.944;5.304;2023-11-22T04:16:04;36.87;;;17.57;;
19251;SDS011;9760;50.944;5.304;2023-11-22T04:18:33;35.33;;;17.33;;
19251;SDS011;9760;50.944;5.304;2023-11-22T04:21:00;36.40;;;18.10;;
19251;SDS011;9760;50.944;5.304;2023-11-22T04:23:28;33.10;;;16.97;;
19251;SDS011;9760;50.944;5.304;2023-11-22T04:25:53;38.30;;;18.07;;
19251;SDS011;9760;50.944;5.304;2023-11-22T04:28:19;34.63;;;17.83;;
19251;SDS011;9760;50.944;5.304;2023-11-22T04:30:44;35.83;;;17.50;;
19251;SDS011;9760;50.944;5.304;2023-11-22T04:33:10;41.20;;;18.97;;
19251;SDS011;9760;50.944;5.304;2023-11-22T04:35:36;36.10;;;18.33;;
19251;SDS011;9760;50.944;5.304;2023-11-22T04:38:03;36.53;;;17.83;;
19251;SDS011;9760;50.944;5.304;2023-11-22T04:40:29;35.10;;;17.77;;
19251;SDS011;9760;50.944;5.304;2023-11-22T04:42:55;37.90;;;18.87;;
19251;SDS011;9760;50.944;5.304;2023-11-22T04:45:21;32.13;;;17.20;;
19251;SDS011;9760;50.944;5.304;2023-11-22T04:47:46;41.00;;;18.83;;
19251;SDS011;9760;50.944;5.304;2023-11-22T04:50:12;39.07;;;19.23;;
19251;SDS011;9760;50.944;5.304;2023-11-22T04:52:38;36.60;;;16.80;;
19251;SDS011;9760;50.944;5.304;2023-11-22T04:55:04;40.87;;;17.20;;
19251;SDS011;9760;50.944;5.304;2023-11-22T04:57:30;41.17;;;19.27;;
19251;SDS011;9760;50.944;5.304;2023-11-22T04:59:55;40.70;;;19.33;;
19251;SDS011;9760;50.944;5.304;2023-11-22T05:02:22;40.13;;;19.10;;
19251;SDS011;9760;50.944;5.304;2023-11-22T05:04:47;41.70;;;19.20;;
19251;SDS011;9760;50.944;5.304;2023-11-22T05:07:14;41.60;;;19.30;;
19251;SDS011;9760;50.944;5.304;2023-11-22T05:09:41;37.10;;;19.20;;
19251;SDS011;9760;50.944;5.304;2023-11-22T05:12:08;39.00;;;18.80;;
19251;SDS011;9760;50.944;5.304;2023-11-22T05:14:35;44.07;;;19.83;;
19251;SDS011;9760;50.944;5.304;2023-11-22T05:17:01;53.03;;;22.83;;
19251;SDS011;9760;50.944;5.304;2023-11-22T05:19:27;55.23;;;23.37;;
19251;SDS011;9760;50.944;5.304;2023-11-22T05:21:52;56.63;;;23.83;;
19251;SDS011;9760;50.944;5.304;2023-11-22T05:24:18;53.97;;;23.33;;
19251;SDS011;9760;50.944;5.304;2023-11-22T05:26:44;53.07;;;22.87;;
19251;SDS011;9760;50.944;5.304;2023-11-22T05:29:10;56.30;;;23.33;;
19251;SDS011;9760;50.944;5.304;2023-11-22T05:31:35;55.53;;;24.37;;
19251;SDS011;9760;50.944;5.304;2023-11-22T05:34:02;54.97;;;23.43;;
19251;SDS011;9760;50.944;5.304;2023-11-22T05:36:28;53.03;;;23.60;;
19251;SDS011;9760;50.944;5.304;2023-11-22T05:38:54;53.40;;;23.33;;
19251;SDS011;9760;50.944;5.304;2023-11-22T05:41:23;52.57;;;22.40;;
19251;SDS011;9760;50.944;5.304;2023-11-22T05:43:50;58.03;;;24.00;;
19251;SDS011;9760;50.944;5.304;2023-11-22T05:46:17;54.07;;;22.60;;
19251;SDS011;9760;50.944;5.304;2023-11-22T05:48:46;57.27;;;23.17;;
19251;SDS011;9760;50.944;5.304;2023-11-22T05:51:13;48.57;;;23.33;;
19251;SDS011;9760;50.944;5.304;2023-11-22T05:53:39;52.90;;;23.03;;
19251;SDS011;9760;50.944;5.304;2023-11-22T05:56:06;52.97;;;23.87;;
19251;SDS011;9760;50.944;5.304;2023-11-22T05:58:33;50.57;;;22.20;;
19251;SDS011;9760;50.944;5.304;2023-11-22T06:01:03;52.50;;;22.97;;
19251;SDS011;9760;50.944;5.304;2023-11-22T06:03:31;54.40;;;22.70;;
19251;SDS011;9760;50.944;5.304;2023-11-22T06:05:57;52.63;;;22.73;;
19251;SDS011;9760;50.944;5.304;2023-11-22T06:08:23;53.57;;;23.00;;
19251;SDS011;9760;50.944;5.304;2023-11-22T06:10:49;53.43;;;22.33;;
19251;SDS011;9760;50.944;5.304;2023-11-22T06:13:14;51.20;;;22.13;;
19251;SDS011;9760;50.944;5.304;2023-11-22T06:15:41;49.80;;;21.50;;
19251;SDS011;9760;50.944;5.304;2023-11-22T06:18:06;51.07;;;21.60;;
19251;SDS011;9760;50.944;5.304;2023-11-22T06:20:32;52.43;;;23.33;;
19251;SDS011;9760;50.944;5.304;2023-11-22T06:22:58;51.43;;;23.30;;
19251;SDS011;9760;50.944;5.304;2023-11-22T06:25:25;52.00;;;22.90;;
19251;SDS011;9760;50.944;5.304;2023-11-22T06:27:50;53.17;;;23.07;;
19251;SDS011;9760;50.944;5.304;2023-11-22T06:30:16;53.80;;;22.77;;
19251;SDS011;9760;50.944;5.304;2023-11-22T06:32:42;59.60;;;23.90;;
19251;SDS011;9760;50.944;5.304;2023-11-22T06:35:08;59.27;;;24.40;;
19251;SDS011;9760;50.944;5.304;2023-11-22T06:37:36;61.27;;;25.43;;
19251;SDS011;9760;50.944;5.304;2023-11-22T06:40:02;65.87;;;25.67;;
19251;SDS011;9760;50.944;5.304;2023-11-22T06:42:29;55.37;;;24.97;;
19251;SDS011;9760;50.944;5.304;2023-11-22T06:44:54;60.63;;;25.50;;
19251;SDS011;9760;50.944;5.304;2023-11-22T06:47:23;60.70;;;26.50;;
19251;SDS011;9760;50.944;5.304;2023-11-22T06:49:49;63.10;;;25.70;;
19251;SDS011;9760;50.944;5.304;2023-11-22T06:52:14;64.33;;;27.07;;
19251;SDS011;9760;50.944;5.304;2023-11-22T06:54:40;68.50;;;25.93;;
19251;SDS011;9760;50.944;5.304;2023-11-22T06:57:06;66.97;;;27.00;;
19251;SDS011;9760;50.944;5.304;2023-11-22T06:59:32;64.77;;;25.43;;
19251;SDS011;9760;50.944;5.304;2023-11-22T07:01:58;62.27;;;25.33;;
19251;SDS011;9760;50.944;5.304;2023-11-22T07:04:24;59.73;;;24.83;;
19251;SDS011;9760;50.944;5.304;2023-11-22T07:06:49;67.57;;;25.70;;
19251;SDS011;9760;50.944;5.304;2023-11-22T07:09:15;66.33;;;25.80;;
19251;SDS011;9760;50.944;5.304;2023-11-22T07:11:40;63.10;;;25.10;;
19251;SDS011;9760;50.944;5.304;2023-11-22T07:14:09;66.23;;;25.87;;
19251;SDS011;9760;50.944;5.304;2023-11-22T07:16:34;70.07;;;25.53;;
19251;SDS011;9760;50.944;5.304;2023-11-22T07:19:00;69.63;;;26.13;;
19251;SDS011;9760;50.944;5.304;2023-11-22T07:21:31;63.33;;;25.63;;
19251;SDS011;9760;50.944;5.304;2023-11-22T07:23:58;69.47;;;25.17;;
19251;SDS011;9760;50.944;5.304;2023-11-22T07:26:26;70.27;;;26.90;;
19251;SDS011;9760;50.944;5.304;2023-11-22T07:28:53;75.43;;;27.97;;
19251;SDS011;9760;50.944;5.304;2023-11-22T07:31:18;70.83;;;26.03;;
19251;SDS011;9760;50.944;5.304;2023-11-22T07:33:44;67.50;;;26.13;;
19251;SDS011;9760;50.944;5.304;2023-11-22T07:36:11;74.97;;;28.17;;
19251;SDS011;9760;50.944;5.304;2023-11-22T07:38:40;80.17;;;27.93;;
19251;SDS011;9760;50.944;5.304;2023-11-22T07:41:06;73.30;;;26.40;;
19251;SDS011;9760;50.944;5.304;2023-11-22T07:43:35;77.87;;;26.87;;
19251;SDS011;9760;50.944;5.304;2023-11-22T07:46:05;70.77;;;27.77;;
19251;SDS011;9760;50.944;5.304;2023-11-22T07:48:37;69.97;;;26.83;;
19251;SDS011;9760;50.944;5.304;2023-11-22T07:51:11;65.10;;;26.07;;
19251;SDS011;9760;50.944;5.304;2023-11-22T07:53:40;74.43;;;26.77;;
19251;SDS011;9760;50.944;5.304;2023-11-22T07:56:06;74.70;;;27.87;;
19251;SDS011;9760;50.944;5.304;2023-11-22T07:58:34;69.97;;;26.83;;
19251;SDS011;9760;50.944;5.304;2023-11-22T08:00:59;79.30;;;27.27;;
19251;SDS011;9760;50.944;5.304;2023-11-22T08:03:29;77.30;;;26.93;;
19251;SDS011;9760;50.944;5.304;2023-11-22T08:05:54;72.53;;;25.93;;
19251;SDS011;9760;50.944;5.304;2023-11-22T08:08:21;73.77;;;26.67;;
19251;SDS011;9760;50.944;5.304;2023-11-22T08:10:47;74.07;;;26.20;;
19251;SDS011;9760;50.944;5.304;2023-11-22T08:13:14;71.57;;;27.60;;
19251;SDS011;9760;50.944;5.304;2023-11-22T08:15:40;75.23;;;26.77;;
19251;SDS011;9760;50.944;5.304;2023-11-22T08:18:06;67.50;;;25.60;;
19251;SDS011;9760;50.944;5.304;2023-11-22T08:20:32;67.23;;;26.07;;
19251;SDS011;9760;50.944;5.304;2023-11-22T08:22:57;71.80;;;26.53;;
19251;SDS011;9760;50.944;5.304;2023-11-22T08:25:23;69.17;;;27.60;;
19251;SDS011;9760;50.944;5.304;2023-11-22T08:27:49;67.97;;;25.77;;
19251;SDS011;9760;50.944;5.304;2023-11-22T08:30:15;70.40;;;25.23;;
19251;SDS011;9760;50.944;5.304;2023-11-22T08:32:44;65.37;;;24.27;;
19251;SDS011;9760;50.944;5.304;2023-11-22T08:35:16;65.40;;;25.87;;
19251;SDS011;9760;50.944;5.304;2023-11-22T08:37:41;65.37;;;24.60;;
19251;SDS011;9760;50.944;5.304;2023-11-22T08:40:08;57.57;;;23.23;;
19251;SDS011;9760;50.944;5.304;2023-11-22T08:42:36;62.70;;;23.30;;
19251;SDS011;9760;50.944;5.304;2023-11-22T08:45:02;53.90;;;21.67;;
19251;SDS011;9760;50.944;5.304;2023-11-22T08:47:28;60.67;;;22.53;;
19251;SDS011;9760;50.944;5.304;2023-11-22T08:49:56;55.40;;;22.83;;
19251;SDS011;9760;50.944;5.304;2023-11-22T08:52:22;55.20;;;21.00;;
19251;SDS011;9760;50.944;5.304;2023-11-22T08:54:48;55.10;;;22.10;;
19251;SDS011;9760;50.944;5.304;2023-11-22T08:57:15;55.53;;;21.67;;
19251;SDS011;9760;50.944;5.304;2023-11-22T08:59:40;58.67;;;23.57;;
19251;SDS011;9760;50.944;5.304;2023-11-22T09:02:06;65.00;;;22.70;;
19251;SDS011;9760;50.944;5.304;2023-11-22T09:04:37;61.90;;;23.60;;
19251;SDS011;9760;50.944;5.304;2023-11-22T09:07:03;59.33;;;22.57;;
19251;SDS011;9760;50.944;5.304;2023-11-22T09:09:30;55.60;;;21.73;;
19251;SDS011;9760;50.944;5.304;2023-11-22T09:11:57;54.97;;;22.43;;
19251;SDS011;9760;50.944;5.304;2023-11-22T09:14:23;57.93;;;22.60;;
19251;SDS011;9760;50.944;5.304;2023-11-22T09:16:49;61.20;;;21.93;;
19251;SDS011;9760;50.944;5.304;2023-11-22T09:19:20;48.17;;;19.90;;
19251;SDS011;9760;50.944;5.304;2023-11-22T09:21:46;49.70;;;21.20;;
19251;SDS011;9760;50.944;5.304;2023-11-22T09:24:12;49.50;;;20.07;;
19251;SDS011;9760;50.944;5.304;2023-11-22T09:26:37;52.43;;;20.93;;
19251;SDS011;9760;50.944;5.304;2023-11-22T09:29:03;49.90;;;20.43;;
19251;SDS011;9760;50.944;5.304;2023-11-22T09:31:30;48.27;;;19.47;;
19251;SDS011;9760;50.944;5.304;2023-11-22T09:33:55;47.90;;;20.47;;
19251;SDS011;9760;50.944;5.304;2023-11-22T09:36:22;50.27;;;20.33;;
19251;SDS011;9760;50.944;5.304;2023-11-22T09:38:52;50.00;;;22.47;;
19251;SDS011;9760;50.944;5.304;2023-11-22T09:41:18;55.57;;;22.27;;
19251;SDS011;9760;50.944;5.304;2023-11-22T09:43:44;57.10;;;21.90;;
19251;SDS011;9760;50.944;5.304;2023-11-22T09:46:14;57.00;;;21.47;;
19251;SDS011;9760;50.944;5.304;2023-11-22T09:48:42;49.30;;;20.07;;
19251;SDS011;9760;50.944;5.304;2023-11-22T09:56:25;50.53;;;20.90;;
19251;SDS011;9760;50.944;5.304;2023-11-22T09:58:53;49.83;;;19.87;;
19251;SDS011;9760;50.944;5.304;2023-11-22T10:01:25;46.53;;;20.07;;
19251;SDS011;9760;50.944;5.304;2023-11-22T10:03:54;54.43;;;20.97;;
19251;SDS011;9760;50.944;5.304;2023-11-22T10:06:19;51.13;;;21.17;;
19251;SDS011;9760;50.944;5.304;2023-11-22T10:08:45;51.27;;;21.23;;
19251;SDS011;9760;50.944;5.304;2023-11-22T10:11:15;46.57;;;20.20;;
19251;SDS011;9760;50.944;5.304;2023-11-22T10:13:49;55.10;;;20.50;;
19251;SDS011;9760;50.944;5.304;2023-11-22T10:16:15;51.40;;;21.23;;
19251;SDS011;9760;50.944;5.304;2023-11-22T10:18:42;61.60;;;26.03;;
19251;SDS011;9760;50.944;5.304;2023-11-22T10:23:46;45.83;;;18.67;;
19251;SDS011;9760;50.944;5.304;2023-11-22T10:26:12;48.63;;;19.93;;
19251;SDS011;9760;50.944;5.304;2023-11-22T10:28:41;52.13;;;21.20;;
19251;SDS011;9760;50.944;5.304;2023-11-22T10:31:08;48.10;;;19.90;;
19251;SDS011;9760;50.944;5.304;2023-11-22T10:33:38;44.03;;;18.20;;
19251;SDS011;9760;50.944;5.304;2023-11-22T10:36:07;45.90;;;19.57;;
19251;SDS011;9760;50.944;5.304;2023-11-22T10:38:33;79.67;;;30.23;;
19251;SDS011;9760;50.944;5.304;2023-11-22T10:41:02;48.93;;;20.37;;
19251;SDS011;9760;50.944;5.304;2023-11-22T10:43:29;46.90;;;19.90;;
19251;SDS011;9760;50.944;5.304;2023-11-22T10:45:57;47.87;;;20.20;;
19251;SDS011;9760;50.944;5.304;2023-11-22T10:48:24;94.57;;;38.87;;
19251;SDS011;9760;50.944;5.304;2023-11-22T10:50:50;59.20;;;25.07;;
19251;SDS011;9760;50.944;5.304;2023-11-22T10:53:22;52.87;;;22.07;;
19251;SDS011;9760;50.944;5.304;2023-11-22T10:55:59;51.80;;;20.57;;
19251;SDS011;9760;50.944;5.304;2023-11-22T10:58:47;43.63;;;18.70;;
19251;SDS011;9760;50.944;5.304;2023-11-22T11:01:17;46.07;;;21.13;;
19251;SDS011;9760;50.944;5.304;2023-11-22T11:04:01;44.70;;;19.30;;
19251;SDS011;9760;50.944;5.304;2023-11-22T11:06:32;48.03;;;19.77;;
19251;SDS011;9760;50.944;5.304;2023-11-22T11:09:00;44.27;;;19.60;;
19251;SDS011;9760;50.944;5.304;2023-11-22T11:11:31;45.50;;;18.83;;
19251;SDS011;9760;50.944;5.304;2023-11-22T11:14:00;46.33;;;19.20;;
19251;SDS011;9760;50.944;5.304;2023-11-22T11:16:28;49.37;;;19.43;;
19251;SDS011;9760;50.944;5.304;2023-11-22T11:18:56;52.93;;;22.07;;
19251;SDS011;9760;50.944;5.304;2023-11-22T11:21:22;52.37;;;21.47;;
19251;SDS011;9760;50.944;5.304;2023-11-22T11:23:51;42.60;;;19.93;;
19251;SDS011;9760;50.944;5.304;2023-11-22T11:26:18;47.97;;;20.20;;
19251;SDS011;9760;50.944;5.304;2023-11-22T11:28:47;47.80;;;21.23;;
19251;SDS011;9760;50.944;5.304;2023-11-22T11:31:15;46.43;;;20.23;;
19251;SDS011;9760;50.944;5.304;2023-11-22T11:36:16;47.23;;;20.57;;
19251;SDS011;9760;50.944;5.304;2023-11-22T11:38:46;56.17;;;22.00;;
19251;SDS011;9760;50.944;5.304;2023-11-22T11:41:14;57.77;;;21.90;;
19251;SDS011;9760;50.944;5.304;2023-11-22T11:46:13;51.60;;;21.07;;
19251;SDS011;9760;50.944;5.304;2023-11-22T11:48:45;50.93;;;19.53;;
19251;SDS011;9760;50.944;5.304;2023-11-22T11:51:16;45.07;;;18.80;;
19251;SDS011;9760;50.944;5.304;2023-11-22T11:53:48;39.93;;;17.63;;
19251;SDS011;9760;50.944;5.304;2023-11-22T11:56:14;40.57;;;17.47;;
19251;SDS011;9760;50.944;5.304;2023-11-22T11:58:44;39.17;;;18.13;;
19251;SDS011;9760;50.944;5.304;2023-11-22T12:01:19;45.23;;;19.63;;
19251;SDS011;9760;50.944;5.304;2023-11-22T12:03:46;46.20;;;19.33;;
19251;SDS011;9760;50.944;5.304;2023-11-22T12:06:16;43.63;;;19.47;;
19251;SDS011;9760;50.944;5.304;2023-11-22T12:08:43;46.37;;;19.50;;
19251;SDS011;9760;50.944;5.304;2023-11-22T12:11:09;45.07;;;18.47;;
19251;SDS011;9760;50.944;5.304;2023-11-22T12:13:35;48.53;;;19.47;;
19251;SDS011;9760;50.944;5.304;2023-11-22T12:16:08;39.97;;;17.47;;
19251;SDS011;9760;50.944;5.304;2023-11-22T12:18:42;39.93;;;17.73;;
19251;SDS011;9760;50.944;5.304;2023-11-22T12:21:09;37.20;;;15.97;;
19251;SDS011;9760;50.944;5.304;2023-11-22T12:23:38;40.90;;;17.70;;
19251;SDS011;9760;50.944;5.304;2023-11-22T12:26:04;39.80;;;17.63;;
19251;SDS011;9760;50.944;5.304;2023-11-22T12:28:34;37.67;;;16.53;;
19251;SDS011;9760;50.944;5.304;2023-11-22T12:31:06;46.77;;;18.67;;
19251;SDS011;9760;50.944;5.304;2023-11-22T12:33:36;43.23;;;18.03;;
19251;SDS011;9760;50.944;5.304;2023-11-22T12:36:03;40.93;;;16.83;;
19251;SDS011;9760;50.944;5.304;2023-11-22T12:38:29;39.70;;;17.70;;
19251;SDS011;9760;50.944;5.304;2023-11-22T12:40:58;42.80;;;15.93;;
19251;SDS011;9760;50.944;5.304;2023-11-22T12:43:24;41.10;;;18.60;;
19251;SDS011;9760;50.944;5.304;2023-11-22T12:48:26;41.27;;;17.20;;
19251;SDS011;9760;50.944;5.304;2023-11-22T12:50:54;38.30;;;16.93;;
19251;SDS011;9760;50.944;5.304;2023-11-22T12:53:21;42.50;;;17.37;;
19251;SDS011;9760;50.944;5.304;2023-11-22T12:55:47;42.50;;;18.30;;
19251;SDS011;9760;50.944;5.304;2023-11-22T12:58:15;41.70;;;17.60;;
19251;SDS011;9760;50.944;5.304;2023-11-22T13:00:41;39.87;;;16.60;;
19251;SDS011;9760;50.944;5.304;2023-11-22T13:03:08;41.90;;;17.17;;
19251;SDS011;9760;50.944;5.304;2023-11-22T13:05:39;42.70;;;18.77;;
19251;SDS011;9760;50.944;5.304;2023-11-22T13:08:12;44.00;;;16.47;;
19251;SDS011;9760;50.944;5.304;2023-11-22T13:10:47;38.50;;;16.93;;
19251;SDS011;9760;50.944;5.304;2023-11-22T13:13:22;44.67;;;18.33;;
19251;SDS011;9760;50.944;5.304;2023-11-22T13:15:49;44.20;;;18.43;;
19251;SDS011;9760;50.944;5.304;2023-11-22T13:18:15;42.27;;;17.90;;
19251;SDS011;9760;50.944;5.304;2023-11-22T13:20:41;41.37;;;16.60;;
19251;SDS011;9760;50.944;5.304;2023-11-22T13:23:07;38.83;;;16.10;;
19251;SDS011;9760;50.944;5.304;2023-11-22T13:25:33;38.37;;;16.63;;
19251;SDS011;9760;50.944;5.304;2023-11-22T13:27:59;43.13;;;16.93;;
19251;SDS011;9760;50.944;5.304;2023-11-22T13:30:25;41.93;;;18.23;;
19251;SDS011;9760;50.944;5.304;2023-11-22T13:32:51;42.13;;;17.60;;
19251;SDS011;9760;50.944;5.304;2023-11-22T13:35:27;40.60;;;16.33;;
19251;SDS011;9760;50.944;5.304;2023-11-22T13:37:56;33.27;;;15.20;;
19251;SDS011;9760;50.944;5.304;2023-11-22T13:40:23;37.10;;;16.80;;
19251;SDS011;9760;50.944;5.304;2023-11-22T13:42:51;35.13;;;15.63;;
19251;SDS011;9760;50.944;5.304;2023-11-22T13:45:20;38.90;;;16.20;;
19251;SDS011;9760;50.944;5.304;2023-11-22T13:47:52;38.17;;;15.87;;
19251;SDS011;9760;50.944;5.304;2023-11-22T13:50:23;41.07;;;15.83;;
19251;SDS011;9760;50.944;5.304;2023-11-22T13:52:51;41.13;;;16.30;;
19251;SDS011;9760;50.944;5.304;2023-11-22T13:55:18;39.70;;;16.10;;
19251;SDS011;9760;50.944;5.304;2023-11-22T14:00:17;40.90;;;16.23;;
19251;SDS011;9760;50.944;5.304;2023-11-22T14:02:47;39.80;;;16.10;;
19251;SDS011;9760;50.944;5.304;2023-11-22T14:05:14;40.57;;;16.47;;
19251;SDS011;9760;50.944;5.304;2023-11-22T14:07:40;33.87;;;16.07;;
19251;SDS011;9760;50.944;5.304;2023-11-22T14:10:07;41.23;;;17.10;;
19251;SDS011;9760;50.944;5.304;2023-11-22T14:12:33;34.83;;;14.97;;
19251;SDS011;9760;50.944;5.304;2023-11-22T14:15:00;35.43;;;15.53;;
19251;SDS011;9760;50.944;5.304;2023-11-22T14:17:26;37.70;;;16.20;;
19251;SDS011;9760;50.944;5.304;2023-11-22T14:19:52;33.17;;;14.80;;
19251;SDS011;9760;50.944;5.304;2023-11-22T14:22:18;33.70;;;15.27;;
19251;SDS011;9760;50.944;5.304;2023-11-22T14:24:45;34.80;;;15.67;;
19251;SDS011;9760;50.944;5.304;2023-11-22T14:27:12;37.23;;;17.10;;
19251;SDS011;9760;50.944;5.304;2023-11-22T14:29:37;38.87;;;17.00;;
19251;SDS011;9760;50.944;5.304;2023-11-22T14:32:04;39.37;;;16.50;;
19251;SDS011;9760;50.944;5.304;2023-11-22T14:34:30;37.53;;;16.30;;
19251;SDS011;9760;50.944;5.304;2023-11-22T14:36:56;40.73;;;16.87;;
19251;SDS011;9760;50.944;5.304;2023-11-22T14:39:22;40.07;;;17.23;;
19251;SDS011;9760;50.944;5.304;2023-11-22T14:41:47;40.27;;;18.30;;
19251;SDS011;9760;50.944;5.304;2023-11-22T14:44:13;35.93;;;16.80;;
19251;SDS011;9760;50.944;5.304;2023-11-22T14:46:39;40.57;;;17.97;;
19251;SDS011;9760;50.944;5.304;2023-11-22T14:49:04;41.00;;;17.80;;
19251;SDS011;9760;50.944;5.304;2023-11-22T14:51:30;43.57;;;18.83;;